sensor_id;sensor_type;location;lat;lon;timestamp;temperature;humidity
41965;DHT22;50120;53.250;8.702;2022-10-16T00:00:39;13.20;99.90
41965;DHT22;50120;53.250;8.702;2022-10-16T00:03:06;13.10;99.90
41965;DHT22;50120;53.250;8.702;2022-10-16T00:05:33;13.20;99.90
41965;DHT22;50120;53.250;8.702;2022-10-16T00:07:59;13.20;99.90
41965;DHT22;50120;53.250;8.702;2022-10-16T00:10:24;13.10;99.90
41965;DHT22;50120;53.250;8.702;2022-10-16T00:12:50;13.10;99.90
41965;DHT22;50120;53.250;8.702;2022-10-16T00:15:16;13.10;99.90
41965;DHT22;50120;53.250;8.702;2022-10-16T00:17:42;13.10;99.90
41965;DHT22;50120;53.250;8.702;2022-10-16T00:20:08;13.10;99.90
41965;DHT22;50120;53.250;8.702;2022-10-16T00:22:33;13.20;99.90
41965;DHT22;50120;53.250;8.702;2022-10-16T00:24:59;13.10;99.90
41965;DHT22;50120;53.250;8.702;2022-10-16T00:27:25;13.10;99.90
41965;DHT22;50120;53.250;8.702;2022-10-16T00:29:51;13.00;99.90
41965;DHT22;50120;53.250;8.702;2022-10-16T00:32:18;13.00;99.90
41965;DHT22;50120;53.250;8.702;2022-10-16T00:34:44;13.00;99.90
41965;DHT22;50120;53.250;8.702;2022-10-16T00:37:09;13.00;99.90
41965;DHT22;50120;53.250;8.702;2022-10-16T00:39:35;12.90;99.90
41965;DHT22;50120;53.250;8.702;2022-10-16T00:42:01;13.00;99.90
41965;DHT22;50120;53.250;8.702;2022-10-16T00:47:31;12.90;99.90
41965;DHT22;50120;53.250;8.702;2022-10-16T00:50:11;12.90;99.90
41965;DHT22;50120;53.250;8.702;2022-10-16T00:52:41;12.90;99.90
41965;DHT22;50120;53.250;8.702;2022-10-16T00:55:09;12.90;99.90
41965;DHT22;50120;53.250;8.702;2022-10-16T00:57:35;12.90;99.90
41965;DHT22;50120;53.250;8.702;2022-10-16T01:00:06;12.90;99.90
41965;DHT22;50120;53.250;8.702;2022-10-16T01:02:32;12.90;99.90
41965;DHT22;50120;53.250;8.702;2022-10-16T01:04:58;12.80;99.90
41965;DHT22;50120;53.250;8.702;2022-10-16T01:07:53;12.80;99.90
41965;DHT22;50120;53.250;8.702;2022-10-16T01:10:30;12.80;99.90
41965;DHT22;50120;53.250;8.702;2022-10-16T01:13:04;12.80;99.90
41965;DHT22;50120;53.250;8.702;2022-10-16T01:15:34;12.70;99.90
41965;DHT22;50120;53.250;8.702;2022-10-16T01:21:01;12.70;99.90
41965;DHT22;50120;53.250;8.702;2022-10-16T01:28:55;12.70;99.90
41965;DHT22;50120;53.250;8.702;2022-10-16T01:31:26;12.60;99.90
41965;DHT22;50120;53.250;8.702;2022-10-16T01:34:35;12.60;99.90
41965;DHT22;50120;53.250;8.702;2022-10-16T01:37:09;12.60;99.90
41965;DHT22;50120;53.250;8.702;2022-10-16T01:39:39;12.60;99.90
41965;DHT22;50120;53.250;8.702;2022-10-16T01:42:21;12.50;99.90
41965;DHT22;50120;53.250;8.702;2022-10-16T01:44:51;12.50;99.90
41965;DHT22;50120;53.250;8.702;2022-10-16T01:47:21;12.40;99.90
41965;DHT22;50120;53.250;8.702;2022-10-16T01:49:47;12.40;99.90
41965;DHT22;50120;53.250;8.702;2022-10-16T01:52:21;12.40;99.90
41965;DHT22;50120;53.250;8.702;2022-10-16T01:54:50;12.30;99.90
41965;DHT22;50120;53.250;8.702;2022-10-16T01:57:18;12.40;99.90
41965;DHT22;50120;53.250;8.702;2022-10-16T01:59:48;12.30;99.90
41965;DHT22;50120;53.250;8.702;2022-10-16T02:02:15;12.30;99.90
41965;DHT22;50120;53.250;8.702;2022-10-16T02:04:51;12.30;99.90
41965;DHT22;50120;53.250;8.702;2022-10-16T02:07:18;12.20;99.90
41965;DHT22;50120;53.250;8.702;2022-10-16T02:09:44;12.30;99.90
41965;DHT22;50120;53.250;8.702;2022-10-16T02:12:20;12.30;99.90
41965;DHT22;50120;53.250;8.702;2022-10-16T02:14:47;12.30;99.90
41965;DHT22;50120;53.250;8.702;2022-10-16T02:17:15;12.30;99.90
41965;DHT22;50120;53.250;8.702;2022-10-16T02:19:42;12.30;99.90
41965;DHT22;50120;53.250;8.702;2022-10-16T02:22:15;12.30;99.90
41965;DHT22;50120;53.250;8.702;2022-10-16T02:25:02;12.30;99.90
41965;DHT22;50120;53.250;8.702;2022-10-16T02:30:33;12.20;99.90
41965;DHT22;50120;53.250;8.702;2022-10-16T02:33:01;12.20;99.90
41965;DHT22;50120;53.250;8.702;2022-10-16T02:35:28;12.20;99.90
41965;DHT22;50120;53.250;8.702;2022-10-16T02:37:56;12.20;99.90
41965;DHT22;50120;53.250;8.702;2022-10-16T02:40:23;12.20;99.90
41965;DHT22;50120;53.250;8.702;2022-10-16T02:42:53;12.20;99.90
41965;DHT22;50120;53.250;8.702;2022-10-16T02:45:20;12.20;99.90
41965;DHT22;50120;53.250;8.702;2022-10-16T02:47:45;12.30;99.90
41965;DHT22;50120;53.250;8.702;2022-10-16T02:50:11;12.20;99.90
41965;DHT22;50120;53.250;8.702;2022-10-16T02:52:37;12.20;99.90
41965;DHT22;50120;53.250;8.702;2022-10-16T02:55:03;12.30;99.90
41965;DHT22;50120;53.250;8.702;2022-10-16T02:57:29;12.20;99.90
41965;DHT22;50120;53.250;8.702;2022-10-16T02:59:54;12.30;99.90
41965;DHT22;50120;53.250;8.702;2022-10-16T03:02:20;12.30;99.90
41965;DHT22;50120;53.250;8.702;2022-10-16T03:04:46;12.30;99.90
41965;DHT22;50120;53.250;8.702;2022-10-16T03:07:11;12.30;99.90
41965;DHT22;50120;53.250;8.702;2022-10-16T03:09:37;12.30;99.90
41965;DHT22;50120;53.250;8.702;2022-10-16T03:12:03;12.30;99.90
41965;DHT22;50120;53.250;8.702;2022-10-16T03:14:29;12.30;99.90
41965;DHT22;50120;53.250;8.702;2022-10-16T03:16:54;12.30;99.90
41965;DHT22;50120;53.250;8.702;2022-10-16T03:19:20;12.40;99.90
41965;DHT22;50120;53.250;8.702;2022-10-16T03:21:46;12.40;99.90
41965;DHT22;50120;53.250;8.702;2022-10-16T03:24:12;12.30;99.90
41965;DHT22;50120;53.250;8.702;2022-10-16T03:26:37;12.40;99.90
41965;DHT22;50120;53.250;8.702;2022-10-16T03:29:03;12.40;99.90
41965;DHT22;50120;53.250;8.702;2022-10-16T03:31:30;12.30;99.90
41965;DHT22;50120;53.250;8.702;2022-10-16T03:33:56;12.30;99.90
41965;DHT22;50120;53.250;8.702;2022-10-16T03:36:22;12.30;99.90
41965;DHT22;50120;53.250;8.702;2022-10-16T03:38:48;12.30;99.90
41965;DHT22;50120;53.250;8.702;2022-10-16T03:41:13;12.30;99.90
41965;DHT22;50120;53.250;8.702;2022-10-16T03:43:39;12.30;99.90
41965;DHT22;50120;53.250;8.702;2022-10-16T03:46:05;12.30;99.90
41965;DHT22;50120;53.250;8.702;2022-10-16T03:48:31;12.30;99.90
41965;DHT22;50120;53.250;8.702;2022-10-16T03:50:57;12.30;99.90
41965;DHT22;50120;53.250;8.702;2022-10-16T03:53:24;12.30;99.90
41965;DHT22;50120;53.250;8.702;2022-10-16T03:55:49;12.30;99.90
41965;DHT22;50120;53.250;8.702;2022-10-16T03:58:16;12.30;99.90
41965;DHT22;50120;53.250;8.702;2022-10-16T04:00:42;12.30;99.90
41965;DHT22;50120;53.250;8.702;2022-10-16T04:03:08;12.30;99.90
41965;DHT22;50120;53.250;8.702;2022-10-16T04:05:34;12.30;99.90
41965;DHT22;50120;53.250;8.702;2022-10-16T04:07:59;12.30;99.90
41965;DHT22;50120;53.250;8.702;2022-10-16T04:10:25;12.30;99.90
41965;DHT22;50120;53.250;8.702;2022-10-16T04:12:51;12.30;99.90
41965;DHT22;50120;53.250;8.702;2022-10-16T04:15:17;12.30;99.90
41965;DHT22;50120;53.250;8.702;2022-10-16T04:17:42;12.30;99.90
41965;DHT22;50120;53.250;8.702;2022-10-16T04:20:08;12.30;99.90
41965;DHT22;50120;53.250;8.702;2022-10-16T04:22:34;12.30;99.90
41965;DHT22;50120;53.250;8.702;2022-10-16T04:25:00;12.30;99.90
41965;DHT22;50120;53.250;8.702;2022-10-16T04:27:25;12.30;99.90
41965;DHT22;50120;53.250;8.702;2022-10-16T04:29:51;12.40;99.90
41965;DHT22;50120;53.250;8.702;2022-10-16T04:32:17;12.40;99.90
41965;DHT22;50120;53.250;8.702;2022-10-16T04:34:42;12.50;99.90
41965;DHT22;50120;53.250;8.702;2022-10-16T04:37:08;12.50;99.90
41965;DHT22;50120;53.250;8.702;2022-10-16T04:39:34;12.50;99.90
41965;DHT22;50120;53.250;8.702;2022-10-16T04:41:59;12.60;99.90
41965;DHT22;50120;53.250;8.702;2022-10-16T04:44:25;12.60;99.90
41965;DHT22;50120;53.250;8.702;2022-10-16T04:46:51;12.60;99.90
41965;DHT22;50120;53.250;8.702;2022-10-16T04:49:17;12.60;99.90
41965;DHT22;50120;53.250;8.702;2022-10-16T04:51:43;12.60;99.90
41965;DHT22;50120;53.250;8.702;2022-10-16T04:54:09;12.70;99.90
41965;DHT22;50120;53.250;8.702;2022-10-16T04:56:35;12.70;99.90
41965;DHT22;50120;53.250;8.702;2022-10-16T04:59:08;12.70;99.90
41965;DHT22;50120;53.250;8.702;2022-10-16T05:01:34;12.70;99.90
41965;DHT22;50120;53.250;8.702;2022-10-16T05:04:00;12.70;99.90
41965;DHT22;50120;53.250;8.702;2022-10-16T05:06:25;12.70;99.90
41965;DHT22;50120;53.250;8.702;2022-10-16T05:08:51;12.80;99.90
41965;DHT22;50120;53.250;8.702;2022-10-16T05:11:17;12.70;99.90
41965;DHT22;50120;53.250;8.702;2022-10-16T05:13:43;12.80;99.90
41965;DHT22;50120;53.250;8.702;2022-10-16T05:16:08;12.80;99.90
41965;DHT22;50120;53.250;8.702;2022-10-16T05:18:34;12.80;99.90
41965;DHT22;50120;53.250;8.702;2022-10-16T05:21:00;12.80;99.90
41965;DHT22;50120;53.250;8.702;2022-10-16T05:23:25;12.80;99.90
41965;DHT22;50120;53.250;8.702;2022-10-16T05:25:55;12.80;99.90
41965;DHT22;50120;53.250;8.702;2022-10-16T05:28:24;12.80;99.90
41965;DHT22;50120;53.250;8.702;2022-10-16T05:30:50;12.80;99.90
41965;DHT22;50120;53.250;8.702;2022-10-16T05:33:16;12.80;99.90
41965;DHT22;50120;53.250;8.702;2022-10-16T05:35:42;12.70;99.90
41965;DHT22;50120;53.250;8.702;2022-10-16T05:38:09;12.80;99.90
41965;DHT22;50120;53.250;8.702;2022-10-16T05:40:35;12.70;99.90
41965;DHT22;50120;53.250;8.702;2022-10-16T05:43:01;12.70;99.90
41965;DHT22;50120;53.250;8.702;2022-10-16T05:45:26;12.70;99.90
41965;DHT22;50120;53.250;8.702;2022-10-16T05:47:52;12.70;99.90
41965;DHT22;50120;53.250;8.702;2022-10-16T05:50:18;12.70;99.90
41965;DHT22;50120;53.250;8.702;2022-10-16T05:52:44;12.70;99.90
41965;DHT22;50120;53.250;8.702;2022-10-16T05:55:10;12.70;99.90
41965;DHT22;50120;53.250;8.702;2022-10-16T05:57:36;12.70;99.90
41965;DHT22;50120;53.250;8.702;2022-10-16T06:00:02;12.70;99.90
41965;DHT22;50120;53.250;8.702;2022-10-16T06:02:28;12.70;99.90
41965;DHT22;50120;53.250;8.702;2022-10-16T06:04:54;12.70;99.90
41965;DHT22;50120;53.250;8.702;2022-10-16T06:07:20;12.70;99.90
41965;DHT22;50120;53.250;8.702;2022-10-16T06:09:50;12.70;99.90
41965;DHT22;50120;53.250;8.702;2022-10-16T06:12:16;12.70;99.90
41965;DHT22;50120;53.250;8.702;2022-10-16T06:14:42;12.70;99.90
41965;DHT22;50120;53.250;8.702;2022-10-16T06:17:08;12.70;99.90
41965;DHT22;50120;53.250;8.702;2022-10-16T06:19:34;12.80;99.90
41965;DHT22;50120;53.250;8.702;2022-10-16T06:22:00;12.80;99.90
41965;DHT22;50120;53.250;8.702;2022-10-16T06:24:26;12.80;99.90
41965;DHT22;50120;53.250;8.702;2022-10-16T06:26:51;12.80;99.90
41965;DHT22;50120;53.250;8.702;2022-10-16T06:29:17;12.80;99.90
41965;DHT22;50120;53.250;8.702;2022-10-16T06:31:43;12.80;99.90
41965;DHT22;50120;53.250;8.702;2022-10-16T06:34:11;12.80;99.90
41965;DHT22;50120;53.250;8.702;2022-10-16T06:36:38;12.80;99.90
41965;DHT22;50120;53.250;8.702;2022-10-16T06:39:05;12.80;99.90
41965;DHT22;50120;53.250;8.702;2022-10-16T06:41:33;12.80;99.90
41965;DHT22;50120;53.250;8.702;2022-10-16T06:43:59;12.80;99.90
41965;DHT22;50120;53.250;8.702;2022-10-16T06:46:26;12.80;99.90
41965;DHT22;50120;53.250;8.702;2022-10-16T06:48:53;12.80;99.90
41965;DHT22;50120;53.250;8.702;2022-10-16T06:51:21;12.80;99.90
41965;DHT22;50120;53.250;8.702;2022-10-16T06:53:54;12.80;99.90
41965;DHT22;50120;53.250;8.702;2022-10-16T06:56:24;12.80;99.90
41965;DHT22;50120;53.250;8.702;2022-10-16T06:58:50;12.90;99.90
41965;DHT22;50120;53.250;8.702;2022-10-16T07:01:17;12.90;99.90
41965;DHT22;50120;53.250;8.702;2022-10-16T07:03:45;12.90;99.90
41965;DHT22;50120;53.250;8.702;2022-10-16T07:06:16;12.90;99.90
41965;DHT22;50120;53.250;8.702;2022-10-16T07:08:44;12.90;99.90
41965;DHT22;50120;53.250;8.702;2022-10-16T07:11:16;13.00;99.90
41965;DHT22;50120;53.250;8.702;2022-10-16T07:13:43;13.00;99.90
41965;DHT22;50120;53.250;8.702;2022-10-16T07:16:12;13.00;99.90
41965;DHT22;50120;53.250;8.702;2022-10-16T07:18:38;13.00;99.90
41965;DHT22;50120;53.250;8.702;2022-10-16T07:21:08;13.10;99.90
41965;DHT22;50120;53.250;8.702;2022-10-16T07:23:34;13.10;99.90
41965;DHT22;50120;53.250;8.702;2022-10-16T07:25:59;13.10;99.90
41965;DHT22;50120;53.250;8.702;2022-10-16T07:28:25;13.10;99.90
41965;DHT22;50120;53.250;8.702;2022-10-16T07:30:51;13.20;99.90
41965;DHT22;50120;53.250;8.702;2022-10-16T07:33:17;13.30;99.90
41965;DHT22;50120;53.250;8.702;2022-10-16T07:35:53;13.30;99.90
41965;DHT22;50120;53.250;8.702;2022-10-16T07:38:20;13.30;99.90
41965;DHT22;50120;53.250;8.702;2022-10-16T07:40:46;13.40;99.90
41965;DHT22;50120;53.250;8.702;2022-10-16T07:43:12;13.30;99.90
41965;DHT22;50120;53.250;8.702;2022-10-16T07:45:49;13.30;99.90
41965;DHT22;50120;53.250;8.702;2022-10-16T07:48:16;13.40;99.90
41965;DHT22;50120;53.250;8.702;2022-10-16T07:50:42;13.50;99.90
41965;DHT22;50120;53.250;8.702;2022-10-16T07:53:09;13.60;99.90
41965;DHT22;50120;53.250;8.702;2022-10-16T07:55:35;13.80;99.90
41965;DHT22;50120;53.250;8.702;2022-10-16T07:58:00;14.00;99.90
41965;DHT22;50120;53.250;8.702;2022-10-16T08:00:26;14.20;99.90
41965;DHT22;50120;53.250;8.702;2022-10-16T08:02:52;14.20;99.90
41965;DHT22;50120;53.250;8.702;2022-10-16T08:05:17;14.20;99.90
41965;DHT22;50120;53.250;8.702;2022-10-16T08:07:47;14.10;99.90
41965;DHT22;50120;53.250;8.702;2022-10-16T08:10:18;14.20;99.90
41965;DHT22;50120;53.250;8.702;2022-10-16T08:12:44;14.20;99.90
41965;DHT22;50120;53.250;8.702;2022-10-16T08:15:10;14.30;99.90
41965;DHT22;50120;53.250;8.702;2022-10-16T08:17:35;14.30;99.90
41965;DHT22;50120;53.250;8.702;2022-10-16T08:20:02;14.30;99.90
41965;DHT22;50120;53.250;8.702;2022-10-16T08:22:28;14.40;99.90
41965;DHT22;50120;53.250;8.702;2022-10-16T08:24:53;14.40;99.90
41965;DHT22;50120;53.250;8.702;2022-10-16T08:27:19;14.50;99.90
41965;DHT22;50120;53.250;8.702;2022-10-16T08:29:45;14.50;99.90
41965;DHT22;50120;53.250;8.702;2022-10-16T08:32:11;14.60;99.90
41965;DHT22;50120;53.250;8.702;2022-10-16T08:34:36;14.80;99.90
41965;DHT22;50120;53.250;8.702;2022-10-16T08:37:02;15.00;99.90
41965;DHT22;50120;53.250;8.702;2022-10-16T08:39:28;15.20;99.90
41965;DHT22;50120;53.250;8.702;2022-10-16T08:47:22;15.50;99.90
41965;DHT22;50120;53.250;8.702;2022-10-16T08:50:02;15.60;99.90
41965;DHT22;50120;53.250;8.702;2022-10-16T08:52:35;15.70;99.90
41965;DHT22;50120;53.250;8.702;2022-10-16T08:55:04;15.70;99.90
41965;DHT22;50120;53.250;8.702;2022-10-16T08:57:30;15.80;99.90
41965;DHT22;50120;53.250;8.702;2022-10-16T09:00:08;15.90;99.90
41965;DHT22;50120;53.250;8.702;2022-10-16T09:08:55;16.30;99.90
41965;DHT22;50120;53.250;8.702;2022-10-16T09:11:44;16.40;99.90
41965;DHT22;50120;53.250;8.702;2022-10-16T09:16:58;16.50;99.90
41965;DHT22;50120;53.250;8.702;2022-10-16T09:19:37;16.50;99.90
41965;DHT22;50120;53.250;8.702;2022-10-16T09:22:15;16.60;99.90
41965;DHT22;50120;53.250;8.702;2022-10-16T09:24:41;16.40;99.90
41965;DHT22;50120;53.250;8.702;2022-10-16T09:27:14;16.30;99.90
41965;DHT22;50120;53.250;8.702;2022-10-16T09:29:40;16.20;99.90
41965;DHT22;50120;53.250;8.702;2022-10-16T09:32:17;16.00;99.90
41965;DHT22;50120;53.250;8.702;2022-10-16T09:35:02;16.10;99.90
41965;DHT22;50120;53.250;8.702;2022-10-16T09:37:29;16.20;99.90
41965;DHT22;50120;53.250;8.702;2022-10-16T09:39:56;16.10;99.90
41965;DHT22;50120;53.250;8.702;2022-10-16T09:42:32;16.10;99.90
41965;DHT22;50120;53.250;8.702;2022-10-16T09:44:59;16.10;99.90
41965;DHT22;50120;53.250;8.702;2022-10-16T09:47:28;16.10;99.90
41965;DHT22;50120;53.250;8.702;2022-10-16T09:50:02;16.00;99.90
41965;DHT22;50120;53.250;8.702;2022-10-16T09:52:32;16.10;99.90
41965;DHT22;50120;53.250;8.702;2022-10-16T09:55:00;16.00;99.90
41965;DHT22;50120;53.250;8.702;2022-10-16T09:57:27;16.00;99.90
41965;DHT22;50120;53.250;8.702;2022-10-16T09:59:55;16.10;99.90
41965;DHT22;50120;53.250;8.702;2022-10-16T10:04:54;16.30;99.90
41965;DHT22;50120;53.250;8.702;2022-10-16T10:07:30;16.50;99.90
41965;DHT22;50120;53.250;8.702;2022-10-16T10:10:01;16.70;99.90
41965;DHT22;50120;53.250;8.702;2022-10-16T10:12:29;16.80;99.90
41965;DHT22;50120;53.250;8.702;2022-10-16T10:15:03;16.80;99.90
41965;DHT22;50120;53.250;8.702;2022-10-16T10:17:30;16.80;99.90
41965;DHT22;50120;53.250;8.702;2022-10-16T10:19:58;16.80;99.90
41965;DHT22;50120;53.250;8.702;2022-10-16T10:22:40;16.90;99.90
41965;DHT22;50120;53.250;8.702;2022-10-16T10:30:50;17.00;99.90
41965;DHT22;50120;53.250;8.702;2022-10-16T10:36:12;17.00;99.90
41965;DHT22;50120;53.250;8.702;2022-10-16T10:41:32;17.10;99.90
41965;DHT22;50120;53.250;8.702;2022-10-16T10:47:20;17.30;99.90
41965;DHT22;50120;53.250;8.702;2022-10-16T11:05:59;17.40;99.90
41965;DHT22;50120;53.250;8.702;2022-10-16T11:08:41;17.60;99.90
41965;DHT22;50120;53.250;8.702;2022-10-16T11:11:25;17.60;99.90
41965;DHT22;50120;53.250;8.702;2022-10-16T11:14:11;17.70;99.90
41965;DHT22;50120;53.250;8.702;2022-10-16T11:16:54;17.60;99.90
41965;DHT22;50120;53.250;8.702;2022-10-16T11:19:34;17.70;99.90
41965;DHT22;50120;53.250;8.702;2022-10-16T11:27:02;17.70;99.90
41965;DHT22;50120;53.250;8.702;2022-10-16T11:29:31;17.60;99.90
41965;DHT22;50120;53.250;8.702;2022-10-16T11:32:01;17.50;99.90
41965;DHT22;50120;53.250;8.702;2022-10-16T11:34:38;17.40;99.90
41965;DHT22;50120;53.250;8.702;2022-10-16T11:37:37;17.40;99.90
41965;DHT22;50120;53.250;8.702;2022-10-16T11:40:28;17.20;99.90
41965;DHT22;50120;53.250;8.702;2022-10-16T11:42:59;17.20;99.90
41965;DHT22;50120;53.250;8.702;2022-10-16T11:45:39;17.10;99.90
41965;DHT22;50120;53.250;8.702;2022-10-16T11:56:32;16.90;99.90
41965;DHT22;50120;53.250;8.702;2022-10-16T11:59:17;16.90;99.90
41965;DHT22;50120;53.250;8.702;2022-10-16T12:04:45;16.90;99.90
41965;DHT22;50120;53.250;8.702;2022-10-16T12:07:14;16.90;99.90
41965;DHT22;50120;53.250;8.702;2022-10-16T12:09:41;17.00;99.90
41965;DHT22;50120;53.250;8.702;2022-10-16T12:12:46;17.00;99.90
41965;DHT22;50120;53.250;8.702;2022-10-16T12:15:24;17.00;99.90
41965;DHT22;50120;53.250;8.702;2022-10-16T12:17:50;16.90;99.90
41965;DHT22;50120;53.250;8.702;2022-10-16T12:22:55;16.90;99.90
41965;DHT22;50120;53.250;8.702;2022-10-16T12:25:28;17.00;99.90
41965;DHT22;50120;53.250;8.702;2022-10-16T12:30:26;17.30;99.90
41965;DHT22;50120;53.250;8.702;2022-10-16T12:32:58;17.40;99.90
41965;DHT22;50120;53.250;8.702;2022-10-16T12:35:32;17.40;99.90
41965;DHT22;50120;53.250;8.702;2022-10-16T12:40:42;17.40;99.90
41965;DHT22;50120;53.250;8.702;2022-10-16T12:45:46;17.50;99.90
41965;DHT22;50120;53.250;8.702;2022-10-16T12:48:20;17.50;99.90
41965;DHT22;50120;53.250;8.702;2022-10-16T12:50:47;17.40;99.90
41965;DHT22;50120;53.250;8.702;2022-10-16T12:53:24;17.50;99.90
41965;DHT22;50120;53.250;8.702;2022-10-16T12:58:42;17.50;99.90
41965;DHT22;50120;53.250;8.702;2022-10-16T13:01:25;17.50;99.90
41965;DHT22;50120;53.250;8.702;2022-10-16T13:09:39;17.80;99.90
41965;DHT22;50120;53.250;8.702;2022-10-16T13:12:14;17.80;99.90
41965;DHT22;50120;53.250;8.702;2022-10-16T13:17:36;17.70;99.90
41965;DHT22;50120;53.250;8.702;2022-10-16T13:20:18;17.70;99.90
41965;DHT22;50120;53.250;8.702;2022-10-16T13:28:33;17.90;99.90
41965;DHT22;50120;53.250;8.702;2022-10-16T13:31:01;18.00;99.90
41965;DHT22;50120;53.250;8.702;2022-10-16T13:33:33;18.00;99.90
41965;DHT22;50120;53.250;8.702;2022-10-16T13:36:00;18.00;99.90
41965;DHT22;50120;53.250;8.702;2022-10-16T13:38:29;18.10;99.90
41965;DHT22;50120;53.250;8.702;2022-10-16T13:41:01;18.10;99.90
41965;DHT22;50120;53.250;8.702;2022-10-16T13:43:47;18.10;99.90
41965;DHT22;50120;53.250;8.702;2022-10-16T13:48:40;17.80;99.90
41965;DHT22;50120;53.250;8.702;2022-10-16T13:51:14;17.70;99.90
41965;DHT22;50120;53.250;8.702;2022-10-16T13:53:40;17.60;99.90
41965;DHT22;50120;53.250;8.702;2022-10-16T13:56:13;17.50;99.90
41965;DHT22;50120;53.250;8.702;2022-10-16T13:58:41;17.60;99.90
41965;DHT22;50120;53.250;8.702;2022-10-16T14:01:20;17.60;99.90
41965;DHT22;50120;53.250;8.702;2022-10-16T14:03:49;17.60;99.90
41965;DHT22;50120;53.250;8.702;2022-10-16T14:06:18;17.60;99.90
41965;DHT22;50120;53.250;8.702;2022-10-16T14:08:50;17.70;99.90
41965;DHT22;50120;53.250;8.702;2022-10-16T14:11:24;17.80;99.90
41965;DHT22;50120;53.250;8.702;2022-10-16T14:13:51;17.90;99.90
41965;DHT22;50120;53.250;8.702;2022-10-16T14:16:20;18.10;99.90
41965;DHT22;50120;53.250;8.702;2022-10-16T14:18:56;18.10;99.90
41965;DHT22;50120;53.250;8.702;2022-10-16T14:21:22;18.10;99.90
41965;DHT22;50120;53.250;8.702;2022-10-16T14:23:48;18.00;99.90
41965;DHT22;50120;53.250;8.702;2022-10-16T14:26:18;17.80;99.90
41965;DHT22;50120;53.250;8.702;2022-10-16T14:28:45;17.70;99.90
41965;DHT22;50120;53.250;8.702;2022-10-16T14:31:31;17.60;99.90
41965;DHT22;50120;53.250;8.702;2022-10-16T14:33:58;17.40;99.90
41965;DHT22;50120;53.250;8.702;2022-10-16T14:36:25;17.30;99.90
41965;DHT22;50120;53.250;8.702;2022-10-16T14:39:02;17.20;99.90
41965;DHT22;50120;53.250;8.702;2022-10-16T14:41:30;17.10;99.90
41965;DHT22;50120;53.250;8.702;2022-10-16T14:44:04;17.00;99.90
41965;DHT22;50120;53.250;8.702;2022-10-16T14:46:34;16.90;99.90
41965;DHT22;50120;53.250;8.702;2022-10-16T14:49:22;16.90;99.90
41965;DHT22;50120;53.250;8.702;2022-10-16T14:51:48;16.90;99.90
41965;DHT22;50120;53.250;8.702;2022-10-16T14:54:16;16.80;99.90
41965;DHT22;50120;53.250;8.702;2022-10-16T14:56:55;16.70;99.90
41965;DHT22;50120;53.250;8.702;2022-10-16T14:59:39;16.60;99.90
41965;DHT22;50120;53.250;8.702;2022-10-16T15:04:54;16.60;99.90
41965;DHT22;50120;53.250;8.702;2022-10-16T15:07:20;16.50;99.90
41965;DHT22;50120;53.250;8.702;2022-10-16T15:09:46;16.50;99.90
41965;DHT22;50120;53.250;8.702;2022-10-16T15:12:12;16.50;99.90
41965;DHT22;50120;53.250;8.702;2022-10-16T15:14:37;16.40;99.90
41965;DHT22;50120;53.250;8.702;2022-10-16T15:17:03;16.40;99.90
41965;DHT22;50120;53.250;8.702;2022-10-16T15:19:29;16.40;99.90
41965;DHT22;50120;53.250;8.702;2022-10-16T15:21:55;16.30;99.90
41965;DHT22;50120;53.250;8.702;2022-10-16T15:24:21;16.30;99.90
41965;DHT22;50120;53.250;8.702;2022-10-16T15:26:47;16.20;99.90
41965;DHT22;50120;53.250;8.702;2022-10-16T15:29:13;16.20;99.90
41965;DHT22;50120;53.250;8.702;2022-10-16T15:31:39;16.10;99.90
41965;DHT22;50120;53.250;8.702;2022-10-16T15:34:09;16.00;99.90
41965;DHT22;50120;53.250;8.702;2022-10-16T15:36:37;16.00;99.90
41965;DHT22;50120;53.250;8.702;2022-10-16T15:39:04;15.90;99.90
41965;DHT22;50120;53.250;8.702;2022-10-16T15:41:30;15.90;99.90
41965;DHT22;50120;53.250;8.702;2022-10-16T15:43:56;15.80;99.90
41965;DHT22;50120;53.250;8.702;2022-10-16T15:46:23;15.80;99.90
41965;DHT22;50120;53.250;8.702;2022-10-16T15:48:50;15.70;99.90
41965;DHT22;50120;53.250;8.702;2022-10-16T15:51:17;15.60;99.90
41965;DHT22;50120;53.250;8.702;2022-10-16T15:53:43;15.60;99.90
41965;DHT22;50120;53.250;8.702;2022-10-16T15:56:12;15.50;99.90
41965;DHT22;50120;53.250;8.702;2022-10-16T15:58:38;15.50;99.90
41965;DHT22;50120;53.250;8.702;2022-10-16T16:01:05;15.40;99.90
41965;DHT22;50120;53.250;8.702;2022-10-16T16:03:32;15.30;99.90
41965;DHT22;50120;53.250;8.702;2022-10-16T16:06:03;15.30;99.90
41965;DHT22;50120;53.250;8.702;2022-10-16T16:08:28;15.10;99.90
41965;DHT22;50120;53.250;8.702;2022-10-16T16:11:14;15.10;99.90
41965;DHT22;50120;53.250;8.702;2022-10-16T16:13:40;14.90;99.90
41965;DHT22;50120;53.250;8.702;2022-10-16T16:16:11;14.80;99.90
41965;DHT22;50120;53.250;8.702;2022-10-16T16:18:37;14.80;99.90
41965;DHT22;50120;53.250;8.702;2022-10-16T16:21:04;14.60;99.90
41965;DHT22;50120;53.250;8.702;2022-10-16T16:23:30;14.60;99.90
41965;DHT22;50120;53.250;8.702;2022-10-16T16:26:07;14.50;99.90
41965;DHT22;50120;53.250;8.702;2022-10-16T16:28:33;14.40;99.90
41965;DHT22;50120;53.250;8.702;2022-10-16T16:30:59;14.30;99.90
41965;DHT22;50120;53.250;8.702;2022-10-16T16:33:25;14.30;99.90
41965;DHT22;50120;53.250;8.702;2022-10-16T16:35:55;14.20;99.90
41965;DHT22;50120;53.250;8.702;2022-10-16T16:38:21;14.10;99.90
41965;DHT22;50120;53.250;8.702;2022-10-16T16:40:47;14.10;99.90
41965;DHT22;50120;53.250;8.702;2022-10-16T16:43:12;14.10;99.90
41965;DHT22;50120;53.250;8.702;2022-10-16T16:45:38;14.10;99.90
41965;DHT22;50120;53.250;8.702;2022-10-16T16:48:04;14.00;99.90
41965;DHT22;50120;53.250;8.702;2022-10-16T16:50:35;13.90;99.90
41965;DHT22;50120;53.250;8.702;2022-10-16T16:53:01;13.90;99.90
41965;DHT22;50120;53.250;8.702;2022-10-16T16:55:26;13.70;99.90
41965;DHT22;50120;53.250;8.702;2022-10-16T16:57:52;13.60;99.90
41965;DHT22;50120;53.250;8.702;2022-10-16T17:00:17;13.60;99.90
41965;DHT22;50120;53.250;8.702;2022-10-16T17:02:43;13.50;99.90
41965;DHT22;50120;53.250;8.702;2022-10-16T17:05:10;13.50;99.90
41965;DHT22;50120;53.250;8.702;2022-10-16T17:07:36;13.40;99.90
41965;DHT22;50120;53.250;8.702;2022-10-16T17:10:05;13.40;99.90
41965;DHT22;50120;53.250;8.702;2022-10-16T17:12:31;13.30;99.90
41965;DHT22;50120;53.250;8.702;2022-10-16T17:14:57;13.30;99.90
41965;DHT22;50120;53.250;8.702;2022-10-16T17:17:22;13.20;99.90
41965;DHT22;50120;53.250;8.702;2022-10-16T17:19:52;13.20;99.90
41965;DHT22;50120;53.250;8.702;2022-10-16T17:22:18;13.10;99.90
41965;DHT22;50120;53.250;8.702;2022-10-16T17:24:48;13.10;99.90
41965;DHT22;50120;53.250;8.702;2022-10-16T17:27:15;13.00;99.90
41965;DHT22;50120;53.250;8.702;2022-10-16T17:29:41;13.00;99.90
41965;DHT22;50120;53.250;8.702;2022-10-16T17:32:06;12.90;99.90